sensor_id;sensor_type;location;lat;lon;timestamp;P1;durP1;ratioP1;P2;durP2;ratioP2
13432;SDS011;6789;47.678;9.158;2022-12-05T00:01:19;13.23;;;6.10;;
13432;SDS011;6789;47.678;9.158;2022-12-05T00:06:16;12.47;;;6.73;;
13432;SDS011;6789;47.678;9.158;2022-12-05T00:11:16;16.50;;;7.50;;
13432;SDS011;6789;47.678;9.158;2022-12-05T00:16:14;14.10;;;7.17;;
13432;SDS011;6789;47.678;9.158;2022-12-05T00:21:13;19.40;;;8.43;;
13432;SDS011;6789;47.678;9.158;2022-12-05T00:26:11;20.53;;;8.93;;
13432;SDS011;6789;47.678;9.158;2022-12-05T00:31:04;22.50;;;8.73;;
13432;SDS011;6789;47.678;9.158;2022-12-05T00:36:02;22.37;;;10.33;;
13432;SDS011;6789;47.678;9.158;2022-12-05T00:41:16;20.77;;;9.63;;
13432;SDS011;6789;47.678;9.158;2022-12-05T00:46:12;25.10;;;9.97;;
13432;SDS011;6789;47.678;9.158;2022-12-05T00:51:11;21.83;;;10.83;;
13432;SDS011;6789;47.678;9.158;2022-12-05T00:56:08;21.67;;;10.37;;
13432;SDS011;6789;47.678;9.158;2022-12-05T01:05:59;20.33;;;9.07;;
13432;SDS011;6789;47.678;9.158;2022-12-05T01:10:54;19.30;;;9.03;;
13432;SDS011;6789;47.678;9.158;2022-12-05T01:15:47;19.67;;;8.47;;
13432;SDS011;6789;47.678;9.158;2022-12-05T01:20:40;17.93;;;8.80;;
13432;SDS011;6789;47.678;9.158;2022-12-05T01:25:34;17.77;;;8.63;;
13432;SDS011;6789;47.678;9.158;2022-12-05T01:30:30;19.17;;;8.63;;
13432;SDS011;6789;47.678;9.158;2022-12-05T01:35:21;19.97;;;8.83;;
13432;SDS011;6789;47.678;9.158;2022-12-05T01:40:13;16.80;;;8.53;;
13432;SDS011;6789;47.678;9.158;2022-12-05T01:45:07;16.03;;;7.97;;
13432;SDS011;6789;47.678;9.158;2022-12-05T01:50:21;14.87;;;7.30;;
13432;SDS011;6789;47.678;9.158;2022-12-05T01:55:13;16.13;;;7.47;;
13432;SDS011;6789;47.678;9.158;2022-12-05T02:00:10;16.37;;;7.30;;
13432;SDS011;6789;47.678;9.158;2022-12-05T02:05:11;17.20;;;7.70;;
13432;SDS011;6789;47.678;9.158;2022-12-05T02:10:15;16.07;;;8.57;;
13432;SDS011;6789;47.678;9.158;2022-12-05T02:26:28;13.63;;;7.37;;
13432;SDS011;6789;47.678;9.158;2022-12-05T02:32:03;16.57;;;7.87;;
13432;SDS011;6789;47.678;9.158;2022-12-05T02:37:20;15.97;;;8.00;;
13432;SDS011;6789;47.678;9.158;2022-12-05T02:42:44;15.17;;;7.80;;
13432;SDS011;6789;47.678;9.158;2022-12-05T02:47:58;14.20;;;7.67;;
13432;SDS011;6789;47.678;9.158;2022-12-05T02:52:51;18.37;;;7.90;;
13432;SDS011;6789;47.678;9.158;2022-12-05T02:57:49;15.50;;;8.17;;
13432;SDS011;6789;47.678;9.158;2022-12-05T03:02:49;16.83;;;8.03;;
13432;SDS011;6789;47.678;9.158;2022-12-05T03:07:46;16.03;;;7.80;;
13432;SDS011;6789;47.678;9.158;2022-12-05T03:12:46;14.60;;;7.30;;
13432;SDS011;6789;47.678;9.158;2022-12-05T03:17:47;13.40;;;7.30;;
13432;SDS011;6789;47.678;9.158;2022-12-05T03:22:48;16.67;;;8.17;;
13432;SDS011;6789;47.678;9.158;2022-12-05T03:28:03;13.70;;;7.00;;
13432;SDS011;6789;47.678;9.158;2022-12-05T03:33:12;15.20;;;7.20;;
13432;SDS011;6789;47.678;9.158;2022-12-05T03:38:24;16.23;;;7.87;;
13432;SDS011;6789;47.678;9.158;2022-12-05T03:43:28;13.17;;;6.97;;
13432;SDS011;6789;47.678;9.158;2022-12-05T03:48:38;15.83;;;7.40;;
13432;SDS011;6789;47.678;9.158;2022-12-05T03:54:00;12.07;;;7.10;;
13432;SDS011;6789;47.678;9.158;2022-12-05T03:59:01;15.03;;;8.03;;
13432;SDS011;6789;47.678;9.158;2022-12-05T04:04:21;15.27;;;7.83;;
13432;SDS011;6789;47.678;9.158;2022-12-05T04:09:25;13.33;;;7.63;;
13432;SDS011;6789;47.678;9.158;2022-12-05T04:14:41;17.83;;;8.07;;
13432;SDS011;6789;47.678;9.158;2022-12-05T04:19:39;14.20;;;7.87;;
13432;SDS011;6789;47.678;9.158;2022-12-05T04:25:09;15.30;;;8.37;;
13432;SDS011;6789;47.678;9.158;2022-12-05T04:30:23;16.90;;;8.17;;
13432;SDS011;6789;47.678;9.158;2022-12-05T04:35:34;15.60;;;8.30;;
13432;SDS011;6789;47.678;9.158;2022-12-05T04:40:34;15.60;;;7.87;;
13432;SDS011;6789;47.678;9.158;2022-12-05T04:45:34;13.87;;;7.63;;
13432;SDS011;6789;47.678;9.158;2022-12-05T04:50:30;12.57;;;7.40;;
13432;SDS011;6789;47.678;9.158;2022-12-05T04:55:24;13.20;;;7.23;;
13432;SDS011;6789;47.678;9.158;2022-12-05T05:00:18;13.57;;;7.57;;
13432;SDS011;6789;47.678;9.158;2022-12-05T05:05:17;13.67;;;7.40;;
13432;SDS011;6789;47.678;9.158;2022-12-05T05:10:14;15.33;;;7.80;;
13432;SDS011;6789;47.678;9.158;2022-12-05T05:15:28;13.50;;;7.03;;
13432;SDS011;6789;47.678;9.158;2022-12-05T05:20:22;13.03;;;7.40;;
13432;SDS011;6789;47.678;9.158;2022-12-05T05:25:14;13.73;;;6.90;;
13432;SDS011;6789;47.678;9.158;2022-12-05T05:30:20;13.13;;;7.03;;
13432;SDS011;6789;47.678;9.158;2022-12-05T05:35:18;15.30;;;7.83;;
13432;SDS011;6789;47.678;9.158;2022-12-05T05:40:11;14.53;;;7.20;;
13432;SDS011;6789;47.678;9.158;2022-12-05T05:45:18;16.23;;;7.27;;
13432;SDS011;6789;47.678;9.158;2022-12-05T05:50:10;17.77;;;7.70;;
13432;SDS011;6789;47.678;9.158;2022-12-05T05:55:09;12.77;;;7.07;;
13432;SDS011;6789;47.678;9.158;2022-12-05T06:00:04;15.37;;;7.97;;
13432;SDS011;6789;47.678;9.158;2022-12-05T06:05:11;14.53;;;7.27;;
13432;SDS011;6789;47.678;9.158;2022-12-05T06:10:17;17.43;;;7.63;;
13432;SDS011;6789;47.678;9.158;2022-12-05T06:15:18;17.50;;;7.97;;
13432;SDS011;6789;47.678;9.158;2022-12-05T06:20:11;16.03;;;8.13;;
13432;SDS011;6789;47.678;9.158;2022-12-05T06:25:04;16.13;;;7.73;;
13432;SDS011;6789;47.678;9.158;2022-12-05T06:30:11;14.33;;;7.70;;
13432;SDS011;6789;47.678;9.158;2022-12-05T06:35:04;17.20;;;8.13;;
13432;SDS011;6789;47.678;9.158;2022-12-05T06:40:05;20.67;;;8.50;;
13432;SDS011;6789;47.678;9.158;2022-12-05T06:45:04;17.23;;;9.07;;
13432;SDS011;6789;47.678;9.158;2022-12-05T06:50:10;19.37;;;8.40;;
13432;SDS011;6789;47.678;9.158;2022-12-05T06:55:16;14.77;;;8.07;;
13432;SDS011;6789;47.678;9.158;2022-12-05T07:00:12;17.00;;;7.97;;
13432;SDS011;6789;47.678;9.158;2022-12-05T07:05:38;15.40;;;8.30;;
13432;SDS011;6789;47.678;9.158;2022-12-05T07:10:34;15.70;;;7.23;;
13432;SDS011;6789;47.678;9.158;2022-12-05T07:15:26;15.13;;;7.63;;
13432;SDS011;6789;47.678;9.158;2022-12-05T07:20:19;12.63;;;6.33;;
13432;SDS011;6789;47.678;9.158;2022-12-05T07:25:12;10.73;;;5.50;;
13432;SDS011;6789;47.678;9.158;2022-12-05T07:30:04;8.23;;;4.37;;
13432;SDS011;6789;47.678;9.158;2022-12-05T07:35:11;9.70;;;4.43;;
13432;SDS011;6789;47.678;9.158;2022-12-05T07:40:17;6.67;;;4.17;;
13432;SDS011;6789;47.678;9.158;2022-12-05T07:45:24;6.57;;;3.70;;
13432;SDS011;6789;47.678;9.158;2022-12-05T07:50:31;8.63;;;4.20;;
13432;SDS011;6789;47.678;9.158;2022-12-05T07:55:38;6.40;;;3.80;;
13432;SDS011;6789;47.678;9.158;2022-12-05T08:00:51;7.80;;;4.50;;
13432;SDS011;6789;47.678;9.158;2022-12-05T08:06:02;7.63;;;4.30;;
13432;SDS011;6789;47.678;9.158;2022-12-05T08:11:20;6.90;;;3.60;;
13432;SDS011;6789;47.678;9.158;2022-12-05T08:16:30;5.77;;;3.80;;
13432;SDS011;6789;47.678;9.158;2022-12-05T08:21:42;8.17;;;3.90;;
13432;SDS011;6789;47.678;9.158;2022-12-05T08:26:48;7.77;;;4.17;;
13432;SDS011;6789;47.678;9.158;2022-12-05T08:31:55;5.13;;;3.20;;
13432;SDS011;6789;47.678;9.158;2022-12-05T08:38:08;7.40;;;4.40;;
13432;SDS011;6789;47.678;9.158;2022-12-05T08:43:14;6.80;;;4.40;;
13432;SDS011;6789;47.678;9.158;2022-12-05T08:48:20;7.20;;;4.00;;
13432;SDS011;6789;47.678;9.158;2022-12-05T08:53:27;7.93;;;4.30;;
13432;SDS011;6789;47.678;9.158;2022-12-05T08:58:33;7.43;;;3.90;;
13432;SDS011;6789;47.678;9.158;2022-12-05T09:03:40;8.23;;;3.93;;
13432;SDS011;6789;47.678;9.158;2022-12-05T09:08:48;7.43;;;3.90;;
13432;SDS011;6789;47.678;9.158;2022-12-05T09:14:03;6.83;;;4.07;;
13432;SDS011;6789;47.678;9.158;2022-12-05T09:19:11;6.83;;;3.40;;
13432;SDS011;6789;47.678;9.158;2022-12-05T09:24:22;10.07;;;3.90;;
13432;SDS011;6789;47.678;9.158;2022-12-05T09:29:29;6.40;;;3.47;;
13432;SDS011;6789;47.678;9.158;2022-12-05T09:34:22;6.03;;;3.77;;
13432;SDS011;6789;47.678;9.158;2022-12-05T09:39:30;4.43;;;2.73;;
13432;SDS011;6789;47.678;9.158;2022-12-05T10:00:42;6.63;;;2.40;;
13432;SDS011;6789;47.678;9.158;2022-12-05T10:05:51;3.47;;;1.77;;
13432;SDS011;6789;47.678;9.158;2022-12-05T10:11:18;3.37;;;2.07;;
13432;SDS011;6789;47.678;9.158;2022-12-05T10:16:47;2.57;;;1.83;;
13432;SDS011;6789;47.678;9.158;2022-12-05T10:32:57;2.90;;;1.90;;
13432;SDS011;6789;47.678;9.158;2022-12-05T10:43:32;4.00;;;2.20;;
13432;SDS011;6789;47.678;9.158;2022-12-05T10:48:41;2.00;;;1.80;;
13432;SDS011;6789;47.678;9.158;2022-12-05T10:53:48;3.90;;;2.00;;
13432;SDS011;6789;47.678;9.158;2022-12-05T10:58:56;2.50;;;1.67;;
13432;SDS011;6789;47.678;9.158;2022-12-05T11:04:05;3.03;;;1.63;;
13432;SDS011;6789;47.678;9.158;2022-12-05T11:10:01;1.70;;;1.37;;
13432;SDS011;6789;47.678;9.158;2022-12-05T11:15:30;2.40;;;1.80;;
13432;SDS011;6789;47.678;9.158;2022-12-05T11:21:09;1.83;;;1.50;;
13432;SDS011;6789;47.678;9.158;2022-12-05T11:26:33;2.10;;;1.20;;
13432;SDS011;6789;47.678;9.158;2022-12-05T11:31:41;2.40;;;1.20;;
13432;SDS011;6789;47.678;9.158;2022-12-05T11:37:00;1.30;;;1.20;;
13432;SDS011;6789;47.678;9.158;2022-12-05T11:48:22;2.93;;;1.37;;
13432;SDS011;6789;47.678;9.158;2022-12-05T11:53:53;1.37;;;1.27;;
13432;SDS011;6789;47.678;9.158;2022-12-05T11:59:33;1.63;;;1.10;;
13432;SDS011;6789;47.678;9.158;2022-12-05T12:05:15;3.53;;;2.30;;
13432;SDS011;6789;47.678;9.158;2022-12-05T12:39:07;1.60;;;1.50;;
13432;SDS011;6789;47.678;9.158;2022-12-05T13:01:07;1.73;;;1.30;;
13432;SDS011;6789;47.678;9.158;2022-12-05T13:06:15;2.20;;;1.60;;
13432;SDS011;6789;47.678;9.158;2022-12-05T13:11:20;1.40;;;1.30;;
13432;SDS011;6789;47.678;9.158;2022-12-05T13:16:29;1.97;;;1.57;;
13432;SDS011;6789;47.678;9.158;2022-12-05T13:21:36;2.50;;;1.50;;
13432;SDS011;6789;47.678;9.158;2022-12-05T13:26:45;2.33;;;1.60;;
13432;SDS011;6789;47.678;9.158;2022-12-05T13:31:56;3.53;;;1.50;;
13432;SDS011;6789;47.678;9.158;2022-12-05T13:37:16;1.67;;;1.33;;
13432;SDS011;6789;47.678;9.158;2022-12-05T13:42:37;1.93;;;1.50;;
13432;SDS011;6789;47.678;9.158;2022-12-05T14:08:51;3.13;;;2.10;;
13432;SDS011;6789;47.678;9.158;2022-12-05T14:14:56;3.40;;;1.70;;
13432;SDS011;6789;47.678;9.158;2022-12-05T14:20:03;2.47;;;1.90;;
13432;SDS011;6789;47.678;9.158;2022-12-05T14:25:19;2.07;;;1.67;;
13432;SDS011;6789;47.678;9.158;2022-12-05T14:42:42;2.53;;;1.90;;
13432;SDS011;6789;47.678;9.158;2022-12-05T15:21:09;5.83;;;2.40;;
13432;SDS011;6789;47.678;9.158;2022-12-05T15:37:16;3.67;;;2.90;;
13432;SDS011;6789;47.678;9.158;2022-12-05T15:42:29;5.57;;;2.90;;
13432;SDS011;6789;47.678;9.158;2022-12-05T15:47:49;5.77;;;2.83;;
13432;SDS011;6789;47.678;9.158;2022-12-05T15:53:17;7.17;;;3.83;;
13432;SDS011;6789;47.678;9.158;2022-12-05T15:58:57;5.20;;;3.67;;
13432;SDS011;6789;47.678;9.158;2022-12-05T16:04:23;3.90;;;2.77;;
13432;SDS011;6789;47.678;9.158;2022-12-05T16:09:43;4.33;;;3.50;;
13432;SDS011;6789;47.678;9.158;2022-12-05T16:14:52;13.23;;;7.30;;
13432;SDS011;6789;47.678;9.158;2022-12-05T16:20:10;13.13;;;7.63;;
13432;SDS011;6789;47.678;9.158;2022-12-05T16:25:23;22.87;;;10.63;;
13432;SDS011;6789;47.678;9.158;2022-12-05T16:30:54;15.10;;;7.43;;
13432;SDS011;6789;47.678;9.158;2022-12-05T16:36:10;15.53;;;8.13;;
13432;SDS011;6789;47.678;9.158;2022-12-05T16:41:17;16.03;;;8.87;;
13432;SDS011;6789;47.678;9.158;2022-12-05T16:51:24;7.43;;;4.63;;
13432;SDS011;6789;47.678;9.158;2022-12-05T16:56:25;8.53;;;4.73;;
13432;SDS011;6789;47.678;9.158;2022-12-05T17:01:25;9.43;;;6.27;;
13432;SDS011;6789;47.678;9.158;2022-12-05T17:06:31;9.00;;;5.60;;
13432;SDS011;6789;47.678;9.158;2022-12-05T17:11:32;8.13;;;4.97;;
13432;SDS011;6789;47.678;9.158;2022-12-05T17:16:29;8.63;;;5.47;;
13432;SDS011;6789;47.678;9.158;2022-12-05T17:21:23;7.43;;;5.00;;
13432;SDS011;6789;47.678;9.158;2022-12-05T17:26:22;7.47;;;5.77;;
13432;SDS011;6789;47.678;9.158;2022-12-05T17:31:21;7.97;;;5.67;;
13432;SDS011;6789;47.678;9.158;2022-12-05T17:36:17;8.50;;;5.53;;
13432;SDS011;6789;47.678;9.158;2022-12-05T17:41:18;9.10;;;5.63;;
13432;SDS011;6789;47.678;9.158;2022-12-05T17:46:51;13.50;;;5.90;;
13432;SDS011;6789;47.678;9.158;2022-12-05T17:51:57;10.10;;;5.77;;
13432;SDS011;6789;47.678;9.158;2022-12-05T17:57:15;9.87;;;5.33;;
13432;SDS011;6789;47.678;9.158;2022-12-05T18:02:24;8.63;;;5.40;;
13432;SDS011;6789;47.678;9.158;2022-12-05T18:07:33;8.23;;;5.70;;
13432;SDS011;6789;47.678;9.158;2022-12-05T18:12:26;7.63;;;5.00;;
13432;SDS011;6789;47.678;9.158;2022-12-05T18:17:20;12.00;;;7.97;;
13432;SDS011;6789;47.678;9.158;2022-12-05T18:23:02;11.00;;;6.90;;
13432;SDS011;6789;47.678;9.158;2022-12-05T18:29:11;14.20;;;6.07;;
13432;SDS011;6789;47.678;9.158;2022-12-05T18:35:04;13.80;;;7.00;;
13432;SDS011;6789;47.678;9.158;2022-12-05T18:40:17;9.10;;;5.93;;
13432;SDS011;6789;47.678;9.158;2022-12-05T18:45:38;10.10;;;5.70;;
13432;SDS011;6789;47.678;9.158;2022-12-05T18:50:44;9.07;;;5.70;;
13432;SDS011;6789;47.678;9.158;2022-12-05T18:55:50;10.00;;;6.33;;
13432;SDS011;6789;47.678;9.158;2022-12-05T19:01:06;9.07;;;6.20;;
13432;SDS011;6789;47.678;9.158;2022-12-05T19:06:20;7.17;;;4.93;;
13432;SDS011;6789;47.678;9.158;2022-12-05T19:11:28;7.10;;;4.83;;
13432;SDS011;6789;47.678;9.158;2022-12-05T19:16:36;8.77;;;4.93;;
13432;SDS011;6789;47.678;9.158;2022-12-05T19:21:47;8.30;;;4.73;;
13432;SDS011;6789;47.678;9.158;2022-12-05T19:26:53;8.40;;;5.57;;
13432;SDS011;6789;47.678;9.158;2022-12-05T19:31:58;7.77;;;5.10;;
13432;SDS011;6789;47.678;9.158;2022-12-05T19:37:04;10.20;;;5.83;;
13432;SDS011;6789;47.678;9.158;2022-12-05T19:42:11;8.47;;;5.53;;
13432;SDS011;6789;47.678;9.158;2022-12-05T19:47:17;9.43;;;6.37;;
13432;SDS011;6789;47.678;9.158;2022-12-05T19:52:25;10.47;;;5.60;;
13432;SDS011;6789;47.678;9.158;2022-12-05T19:57:46;8.97;;;5.90;;
13432;SDS011;6789;47.678;9.158;2022-12-05T20:03:11;10.73;;;6.27;;
13432;SDS011;6789;47.678;9.158;2022-12-05T20:08:48;9.47;;;6.07;;
13432;SDS011;6789;47.678;9.158;2022-12-05T20:14:01;12.70;;;7.70;;
13432;SDS011;6789;47.678;9.158;2022-12-05T20:24:44;13.80;;;8.47;;
13432;SDS011;6789;47.678;9.158;2022-12-05T20:29:36;13.87;;;8.57;;
13432;SDS011;6789;47.678;9.158;2022-12-05T20:34:43;12.60;;;7.57;;
13432;SDS011;6789;47.678;9.158;2022-12-05T20:39:49;15.07;;;8.60;;
13432;SDS011;6789;47.678;9.158;2022-12-05T20:44:55;13.67;;;8.43;;
13432;SDS011;6789;47.678;9.158;2022-12-05T20:50:00;15.87;;;8.60;;
13432;SDS011;6789;47.678;9.158;2022-12-05T20:54:56;14.63;;;8.20;;
13432;SDS011;6789;47.678;9.158;2022-12-05T21:00:02;19.53;;;9.77;;
13432;SDS011;6789;47.678;9.158;2022-12-05T21:04:55;15.67;;;9.93;;
13432;SDS011;6789;47.678;9.158;2022-12-05T21:10:01;16.90;;;9.43;;
13432;SDS011;6789;47.678;9.158;2022-12-05T21:15:07;15.63;;;9.33;;
13432;SDS011;6789;47.678;9.158;2022-12-05T21:20:03;15.80;;;9.73;;
13432;SDS011;6789;47.678;9.158;2022-12-05T21:24:57;15.17;;;9.60;;
13432;SDS011;6789;47.678;9.158;2022-12-05T21:30:03;19.13;;;10.60;;
13432;SDS011;6789;47.678;9.158;2022-12-05T21:34:56;22.37;;;11.47;;
13432;SDS011;6789;47.678;9.158;2022-12-05T21:39:50;18.63;;;11.03;;
13432;SDS011;6789;47.678;9.158;2022-12-05T21:44:56;20.23;;;12.30;;
13432;SDS011;6789;47.678;9.158;2022-12-05T21:49:51;23.87;;;12.30;;
13432;SDS011;6789;47.678;9.158;2022-12-05T21:54:46;18.93;;;10.73;;
13432;SDS011;6789;47.678;9.158;2022-12-05T21:59:52;18.43;;;10.67;;
13432;SDS011;6789;47.678;9.158;2022-12-05T22:04:45;15.90;;;10.20;;
13432;SDS011;6789;47.678;9.158;2022-12-05T22:09:39;16.93;;;9.93;;
13432;SDS011;6789;47.678;9.158;2022-12-05T22:14:34;17.47;;;10.00;;
13432;SDS011;6789;47.678;9.158;2022-12-05T22:19:26;15.83;;;10.23;;
13432;SDS011;6789;47.678;9.158;2022-12-05T22:24:25;21.60;;;10.80;;
13432;SDS011;6789;47.678;9.158;2022-12-05T22:29:19;20.43;;;11.73;;
13432;SDS011;6789;47.678;9.158;2022-12-05T22:34:25;19.43;;;10.77;;
13432;SDS011;6789;47.678;9.158;2022-12-05T22:39:18;21.80;;;10.80;;
13432;SDS011;6789;47.678;9.158;2022-12-05T22:44:11;18.10;;;11.20;;
13432;SDS011;6789;47.678;9.158;2022-12-05T22:49:17;19.83;;;10.90;;
13432;SDS011;6789;47.678;9.158;2022-12-05T22:54:22;20.70;;;10.20;;
13432;SDS011;6789;47.678;9.158;2022-12-05T22:59:20;17.30;;;10.23;;
13432;SDS011;6789;47.678;9.158;2022-12-05T23:04:14;18.17;;;11.07;;
13432;SDS011;6789;47.678;9.158;2022-12-05T23:09:08;16.83;;;10.27;;
13432;SDS011;6789;47.678;9.158;2022-12-05T23:14:01;17.87;;;10.73;;
13432;SDS011;6789;47.678;9.158;2022-12-05T23:18:59;16.27;;;9.10;;
13432;SDS011;6789;47.678;9.158;2022-12-05T23:24:08;20.10;;;9.87;;
13432;SDS011;6789;47.678;9.158;2022-12-05T23:29:05;15.73;;;9.73;;
13432;SDS011;6789;47.678;9.158;2022-12-05T23:33:58;17.93;;;10.20;;
13432;SDS011;6789;47.678;9.158;2022-12-05T23:38:54;15.33;;;9.33;;
13432;SDS011;6789;47.678;9.158;2022-12-05T23:43:46;14.37;;;9.20;;
13432;SDS011;6789;47.678;9.158;2022-12-05T23:48:42;13.13;;;8.47;;
13432;SDS011;6789;47.678;9.158;2022-12-05T23:53:36;14.77;;;9.07;;
13432;SDS011;6789;47.678;9.158;2022-12-05T23:58:35;13.47;;;8.93;;
